Airfield :
LOGIN :

Register | Disclaimer

   EN    FR    IT 

 










Legend :    VFR   Marginal VFR   IFR   Intensive IFR   Very Intensive IFR
Visi :
Ceiling :
>= 8 km
>= 3000ft
5 to 8 km
1000 to 3000 ft
1500m to 5 km
500 to 1000 ft
800 to 1500m
200 to 500 ft
< 800m
< 200 ft
Symbols :   Thunderstorms  Fog  Heavy snow  Heavy precipitations  Wind > 20 kt
SIGMETs :     Misc.  Thunderstorms  Icing  Turbulence  Mountain Waves  Volcanic Ashes







- Airport Elevation : 327 ft
- IATA code : BHX
- Download approach charts


EGBB - Birmingham

CURRENT METAR :
  • 180820Z 08009KT 3700 BR BKN006 06/05 Q1030

EXPIRED METARs :
  • 180750Z 07007KT 050V140 3500 BR BKN007 06/05 Q1030
  • 180720Z 08009KT 3300 BR BKN006 06/05 Q1029
  • 180650Z 07009KT 3300 BR OVC005 06/05 Q1029
  • 180620Z 08008KT 3100 BR BKN004 BKN006 06/05 Q1029
  • 180550Z 07009KT 3000 BR OVC004 06/05 Q1029

TAF TAF EGBB
Valid from the 18 at 06:00 until the 19 at 06:00 UTC


180453Z 1806/1906 06007KT 3000 BR BKN004
TEMPO 1806/1809 8000 NSW BKN010
BECMG 1809/1812 CAVOK
BECMG 1815/1818 7000
BECMG 1900/1903 BKN020
ATIS : +44 121 780 0910
No reported NOTAMs for that airfield.



MET'MAP, your aeronautical weather chart ! - Copyright ORBIFLY December 2007 - Disclaimer

ORBIFLY MET'MAP TEAM :

Programming & Development : Alexandra Zaïnal
Concept & Development : Baudouin d'Aumeries
Co-Development & Prog : Marc-Olivier Méhu
Technical & hardware support : Manuel Goepfert

Contact : metmap@orbifly.com




SOURCES & CREDITS :

   NOAA